sensor_id;sensor_type;location;lat;lon;timestamp;temperature;humidity
70593;DHT22;58294;42.988;20.338;2024-01-30T00:01:43;102.90;1612.80
70593;DHT22;58294;42.988;20.338;2024-01-30T00:04:09;102.90;1612.80
70593;DHT22;58294;42.988;20.338;2024-01-30T00:06:35;102.90;1612.80
70593;DHT22;58294;42.988;20.338;2024-01-30T00:09:00;102.80;1612.80
70593;DHT22;58294;42.988;20.338;2024-01-30T00:11:26;102.70;1587.20
70593;DHT22;58294;42.988;20.338;2024-01-30T00:13:53;102.70;1612.80
70593;DHT22;58294;42.988;20.338;2024-01-30T00:16:21;102.60;1638.40
70593;DHT22;58294;42.988;20.338;2024-01-30T00:18:47;102.60;1664.00
70593;DHT22;58294;42.988;20.338;2024-01-30T00:21:13;102.60;1664.00
70593;DHT22;58294;42.988;20.338;2024-01-30T00:23:39;102.60;1664.00
70593;DHT22;58294;42.988;20.338;2024-01-30T00:26:05;102.60;1664.00
70593;DHT22;58294;42.988;20.338;2024-01-30T00:28:31;102.60;1689.60
70593;DHT22;58294;42.988;20.338;2024-01-30T00:30:57;102.60;1689.60
70593;DHT22;58294;42.988;20.338;2024-01-30T00:33:23;102.70;1689.60
70593;DHT22;58294;42.988;20.338;2024-01-30T00:35:49;102.70;1664.00
70593;DHT22;58294;42.988;20.338;2024-01-30T00:38:14;102.70;1664.00
70593;DHT22;58294;42.988;20.338;2024-01-30T00:40:40;102.70;1664.00
70593;DHT22;58294;42.988;20.338;2024-01-30T00:43:06;102.70;1664.00
70593;DHT22;58294;42.988;20.338;2024-01-30T00:45:32;102.80;1664.00
70593;DHT22;58294;42.988;20.338;2024-01-30T00:47:57;102.80;1689.60
70593;DHT22;58294;42.988;20.338;2024-01-30T00:50:23;102.80;1689.60
70593;DHT22;58294;42.988;20.338;2024-01-30T00:52:49;102.90;1664.00
70593;DHT22;58294;42.988;20.338;2024-01-30T00:55:15;102.90;1664.00
70593;DHT22;58294;42.988;20.338;2024-01-30T00:57:41;102.90;1664.00
70593;DHT22;58294;42.988;20.338;2024-01-30T01:00:07;102.90;1664.00
70593;DHT22;58294;42.988;20.338;2024-01-30T01:02:35;102.90;1664.00
70593;DHT22;58294;42.988;20.338;2024-01-30T01:05:01;102.90;1664.00
70593;DHT22;58294;42.988;20.338;2024-01-30T01:07:27;102.80;1664.00
70593;DHT22;58294;42.988;20.338;2024-01-30T01:09:53;102.80;1664.00
70593;DHT22;58294;42.988;20.338;2024-01-30T01:12:18;102.80;1664.00
70593;DHT22;58294;42.988;20.338;2024-01-30T01:14:45;102.80;1664.00
70593;DHT22;58294;42.988;20.338;2024-01-30T01:17:12;102.80;1664.00
70593;DHT22;58294;42.988;20.338;2024-01-30T01:19:38;102.80;1664.00
70593;DHT22;58294;42.988;20.338;2024-01-30T01:22:03;102.70;1664.00
70593;DHT22;58294;42.988;20.338;2024-01-30T01:24:32;102.70;1689.60
70593;DHT22;58294;42.988;20.338;2024-01-30T01:26:58;102.70;1664.00
70593;DHT22;58294;42.988;20.338;2024-01-30T01:29:24;102.70;1664.00
70593;DHT22;58294;42.988;20.338;2024-01-30T01:31:57;102.70;1689.60
70593;DHT22;58294;42.988;20.338;2024-01-30T01:34:24;102.80;1664.00
70593;DHT22;58294;42.988;20.338;2024-01-30T01:36:50;102.70;1689.60
70593;DHT22;58294;42.988;20.338;2024-01-30T01:39:17;102.70;1664.00
70593;DHT22;58294;42.988;20.338;2024-01-30T01:41:43;102.80;1689.60
70593;DHT22;58294;42.988;20.338;2024-01-30T01:44:09;102.80;1689.60
70593;DHT22;58294;42.988;20.338;2024-01-30T01:46:35;102.80;1689.60
70593;DHT22;58294;42.988;20.338;2024-01-30T01:49:03;102.80;1689.60
70593;DHT22;58294;42.988;20.338;2024-01-30T01:51:31;102.80;1664.00
70593;DHT22;58294;42.988;20.338;2024-01-30T01:53:57;102.80;1664.00
70593;DHT22;58294;42.988;20.338;2024-01-30T01:56:24;102.80;1664.00
70593;DHT22;58294;42.988;20.338;2024-01-30T01:58:51;102.70;1638.40
70593;DHT22;58294;42.988;20.338;2024-01-30T02:01:20;102.60;1664.00
70593;DHT22;58294;42.988;20.338;2024-01-30T02:03:47;102.60;1664.00
70593;DHT22;58294;42.988;20.338;2024-01-30T02:06:14;102.60;1689.60
70593;DHT22;58294;42.988;20.338;2024-01-30T02:08:40;102.60;1689.60
70593;DHT22;58294;42.988;20.338;2024-01-30T02:11:07;102.60;1664.00
70593;DHT22;58294;42.988;20.338;2024-01-30T02:13:33;102.50;1664.00
70593;DHT22;58294;42.988;20.338;2024-01-30T02:15:58;102.40;1664.00
70593;DHT22;58294;42.988;20.338;2024-01-30T02:18:24;102.40;1689.60
70593;DHT22;58294;42.988;20.338;2024-01-30T02:20:53;102.40;1689.60
70593;DHT22;58294;42.988;20.338;2024-01-30T02:23:20;102.40;1715.20
70593;DHT22;58294;42.988;20.338;2024-01-30T02:25:46;102.40;1715.20
70593;DHT22;58294;42.988;20.338;2024-01-30T02:28:15;102.40;1715.20
70593;DHT22;58294;42.988;20.338;2024-01-30T02:30:44;77.70;1689.60
70593;DHT22;58294;42.988;20.338;2024-01-30T02:33:10;77.60;1689.60
70593;DHT22;58294;42.988;20.338;2024-01-30T02:35:36;77.60;1689.60
70593;DHT22;58294;42.988;20.338;2024-01-30T02:38:01;77.50;1715.20
70593;DHT22;58294;42.988;20.338;2024-01-30T02:40:27;77.60;1715.20
70593;DHT22;58294;42.988;20.338;2024-01-30T02:42:53;77.50;1715.20
70593;DHT22;58294;42.988;20.338;2024-01-30T02:45:19;77.50;1715.20
70593;DHT22;58294;42.988;20.338;2024-01-30T02:47:45;77.50;1715.20
70593;DHT22;58294;42.988;20.338;2024-01-30T02:50:11;77.50;1715.20
70593;DHT22;58294;42.988;20.338;2024-01-30T02:52:37;77.50;1740.80
70593;DHT22;58294;42.988;20.338;2024-01-30T02:55:03;77.50;1740.80
70593;DHT22;58294;42.988;20.338;2024-01-30T02:57:29;77.40;1740.80
70593;DHT22;58294;42.988;20.338;2024-01-30T02:59:55;77.40;1715.20
70593;DHT22;58294;42.988;20.338;2024-01-30T03:02:21;77.30;1740.80
70593;DHT22;58294;42.988;20.338;2024-01-30T03:04:47;77.30;1740.80
70593;DHT22;58294;42.988;20.338;2024-01-30T03:07:13;77.30;1766.40
70593;DHT22;58294;42.988;20.338;2024-01-30T03:09:39;77.30;1740.80
70593;DHT22;58294;42.988;20.338;2024-01-30T03:12:06;77.30;1740.80
70593;DHT22;58294;42.988;20.338;2024-01-30T03:14:32;77.20;1740.80
70593;DHT22;58294;42.988;20.338;2024-01-30T03:16:58;77.20;1740.80
70593;DHT22;58294;42.988;20.338;2024-01-30T03:19:24;77.10;1740.80
70593;DHT22;58294;42.988;20.338;2024-01-30T03:21:50;77.10;1740.80
70593;DHT22;58294;42.988;20.338;2024-01-30T03:24:16;77.00;1740.80
70593;DHT22;58294;42.988;20.338;2024-01-30T03:26:43;76.90;1740.80
70593;DHT22;58294;42.988;20.338;2024-01-30T03:29:09;76.90;1740.80
70593;DHT22;58294;42.988;20.338;2024-01-30T03:31:34;76.80;1740.80
70593;DHT22;58294;42.988;20.338;2024-01-30T03:34:01;52.10;1766.40
70593;DHT22;58294;42.988;20.338;2024-01-30T03:36:27;52.00;1740.80
70593;DHT22;58294;42.988;20.338;2024-01-30T03:38:53;51.90;1766.40
70593;DHT22;58294;42.988;20.338;2024-01-30T03:41:19;51.90;1766.40
70593;DHT22;58294;42.988;20.338;2024-01-30T03:43:45;51.90;1766.40
70593;DHT22;58294;42.988;20.338;2024-01-30T03:46:14;51.80;1792.00
70593;DHT22;58294;42.988;20.338;2024-01-30T03:48:40;51.80;1792.00
70593;DHT22;58294;42.988;20.338;2024-01-30T03:51:05;51.70;1792.00
70593;DHT22;58294;42.988;20.338;2024-01-30T03:53:31;51.70;1792.00
70593;DHT22;58294;42.988;20.338;2024-01-30T03:55:57;51.60;1766.40
70593;DHT22;58294;42.988;20.338;2024-01-30T03:58:23;51.50;1817.60
70593;DHT22;58294;42.988;20.338;2024-01-30T04:00:49;51.50;1817.60
70593;DHT22;58294;42.988;20.338;2024-01-30T04:03:15;51.40;1817.60
70593;DHT22;58294;42.988;20.338;2024-01-30T04:05:41;51.40;1817.60
70593;DHT22;58294;42.988;20.338;2024-01-30T04:08:07;51.40;1817.60
70593;DHT22;58294;42.988;20.338;2024-01-30T04:10:34;51.30;1817.60
70593;DHT22;58294;42.988;20.338;2024-01-30T04:13:00;51.30;1817.60
70593;DHT22;58294;42.988;20.338;2024-01-30T04:15:26;51.20;1817.60
70593;DHT22;58294;42.988;20.338;2024-01-30T04:17:52;51.20;1817.60
70593;DHT22;58294;42.988;20.338;2024-01-30T04:20:18;51.20;1817.60
70593;DHT22;58294;42.988;20.338;2024-01-30T04:22:44;26.50;1817.60
70593;DHT22;58294;42.988;20.338;2024-01-30T04:25:11;26.50;1817.60
70593;DHT22;58294;42.988;20.338;2024-01-30T04:27:37;26.40;1817.60
70593;DHT22;58294;42.988;20.338;2024-01-30T04:30:03;26.40;1817.60
70593;DHT22;58294;42.988;20.338;2024-01-30T04:32:29;26.30;1817.60
70593;DHT22;58294;42.988;20.338;2024-01-30T04:34:55;26.30;1817.60
70593;DHT22;58294;42.988;20.338;2024-01-30T04:37:21;26.20;1817.60
70593;DHT22;58294;42.988;20.338;2024-01-30T04:39:47;26.20;1817.60
70593;DHT22;58294;42.988;20.338;2024-01-30T04:42:13;26.20;1817.60
70593;DHT22;58294;42.988;20.338;2024-01-30T04:44:38;26.10;1792.00
70593;DHT22;58294;42.988;20.338;2024-01-30T04:47:04;26.00;1792.00
70593;DHT22;58294;42.988;20.338;2024-01-30T04:49:31;25.90;1817.60
70593;DHT22;58294;42.988;20.338;2024-01-30T04:51:57;25.90;1792.00
70593;DHT22;58294;42.988;20.338;2024-01-30T04:54:24;25.80;1792.00
70593;DHT22;58294;42.988;20.338;2024-01-30T04:56:50;25.70;1817.60
70593;DHT22;58294;42.988;20.338;2024-01-30T04:59:15;25.60;1843.20
70593;DHT22;58294;42.988;20.338;2024-01-30T05:01:41;25.60;1843.20
70593;DHT22;58294;42.988;20.338;2024-01-30T05:04:08;25.60;1868.80
70593;DHT22;58294;42.988;20.338;2024-01-30T05:06:34;0.90;1843.20
70593;DHT22;58294;42.988;20.338;2024-01-30T05:09:00;0.90;1843.20
70593;DHT22;58294;42.988;20.338;2024-01-30T05:11:25;0.90;1868.80
70593;DHT22;58294;42.988;20.338;2024-01-30T05:13:51;0.80;1843.20
70593;DHT22;58294;42.988;20.338;2024-01-30T05:16:17;0.80;1843.20
70593;DHT22;58294;42.988;20.338;2024-01-30T05:18:43;0.80;1843.20
70593;DHT22;58294;42.988;20.338;2024-01-30T05:21:10;0.70;1843.20
70593;DHT22;58294;42.988;20.338;2024-01-30T05:23:36;0.70;1868.80
70593;DHT22;58294;42.988;20.338;2024-01-30T05:26:02;0.60;1868.80
70593;DHT22;58294;42.988;20.338;2024-01-30T05:28:31;0.60;1868.80
70593;DHT22;58294;42.988;20.338;2024-01-30T05:30:57;0.60;1868.80
70593;DHT22;58294;42.988;20.338;2024-01-30T05:33:23;0.50;1843.20
70593;DHT22;58294;42.988;20.338;2024-01-30T05:35:49;0.50;1868.80
70593;DHT22;58294;42.988;20.338;2024-01-30T05:38:16;0.50;1868.80
70593;DHT22;58294;42.988;20.338;2024-01-30T05:40:41;0.40;1868.80
70593;DHT22;58294;42.988;20.338;2024-01-30T05:43:07;0.30;1868.80
70593;DHT22;58294;42.988;20.338;2024-01-30T05:45:33;0.30;1868.80
70593;DHT22;58294;42.988;20.338;2024-01-30T05:48:02;0.30;1868.80
70593;DHT22;58294;42.988;20.338;2024-01-30T05:50:28;0.30;1868.80
70593;DHT22;58294;42.988;20.338;2024-01-30T05:52:54;0.30;1894.40
70593;DHT22;58294;42.988;20.338;2024-01-30T05:55:20;0.30;1894.40
70593;DHT22;58294;42.988;20.338;2024-01-30T05:57:46;0.30;1894.40
70593;DHT22;58294;42.988;20.338;2024-01-30T06:00:12;0.30;1868.80
70593;DHT22;58294;42.988;20.338;2024-01-30T06:02:38;0.20;1894.40
70593;DHT22;58294;42.988;20.338;2024-01-30T06:05:04;0.30;1920.00
70593;DHT22;58294;42.988;20.338;2024-01-30T06:07:30;0.40;1920.00
70593;DHT22;58294;42.988;20.338;2024-01-30T06:09:55;0.50;1920.00
70593;DHT22;58294;42.988;20.338;2024-01-30T06:12:21;0.60;1894.40
70593;DHT22;58294;42.988;20.338;2024-01-30T06:14:47;0.70;1868.80
70593;DHT22;58294;42.988;20.338;2024-01-30T06:17:13;0.70;1843.20
70593;DHT22;58294;42.988;20.338;2024-01-30T06:19:39;0.80;1843.20
70593;DHT22;58294;42.988;20.338;2024-01-30T06:22:05;0.90;1868.80
70593;DHT22;58294;42.988;20.338;2024-01-30T06:24:31;0.90;1843.20
70593;DHT22;58294;42.988;20.338;2024-01-30T06:26:56;0.90;1868.80
70593;DHT22;58294;42.988;20.338;2024-01-30T06:29:22;25.60;1868.80
70593;DHT22;58294;42.988;20.338;2024-01-30T06:31:50;25.70;1868.80
70593;DHT22;58294;42.988;20.338;2024-01-30T06:34:16;25.80;1868.80
70593;DHT22;58294;42.988;20.338;2024-01-30T06:36:42;25.80;1843.20
70593;DHT22;58294;42.988;20.338;2024-01-30T06:39:08;25.80;1843.20
70593;DHT22;58294;42.988;20.338;2024-01-30T06:41:34;25.90;1843.20
70593;DHT22;58294;42.988;20.338;2024-01-30T06:44:02;25.90;1843.20
70593;DHT22;58294;42.988;20.338;2024-01-30T06:46:29;26.00;1843.20
70593;DHT22;58294;42.988;20.338;2024-01-30T06:48:55;26.00;1843.20
70593;DHT22;58294;42.988;20.338;2024-01-30T06:51:21;26.10;1843.20
70593;DHT22;58294;42.988;20.338;2024-01-30T06:53:46;26.20;1817.60
70593;DHT22;58294;42.988;20.338;2024-01-30T06:56:12;26.30;1817.60
70593;DHT22;58294;42.988;20.338;2024-01-30T06:58:38;26.30;1792.00
70593;DHT22;58294;42.988;20.338;2024-01-30T07:01:04;26.30;1817.60
70593;DHT22;58294;42.988;20.338;2024-01-30T07:03:30;26.30;1792.00
70593;DHT22;58294;42.988;20.338;2024-01-30T07:05:56;26.50;1792.00
70593;DHT22;58294;42.988;20.338;2024-01-30T07:08:21;26.50;1792.00
70593;DHT22;58294;42.988;20.338;2024-01-30T07:10:48;26.50;1792.00
70593;DHT22;58294;42.988;20.338;2024-01-30T07:13:13;26.50;1792.00
70593;DHT22;58294;42.988;20.338;2024-01-30T07:15:42;26.50;1766.40
70593;DHT22;58294;42.988;20.338;2024-01-30T07:18:08;51.20;1817.60
70593;DHT22;58294;42.988;20.338;2024-01-30T07:20:35;51.20;1817.60
70593;DHT22;58294;42.988;20.338;2024-01-30T07:23:01;51.30;1817.60
70593;DHT22;58294;42.988;20.338;2024-01-30T07:25:27;51.40;1843.20
70593;DHT22;58294;42.988;20.338;2024-01-30T07:27:55;51.50;1843.20
70593;DHT22;58294;42.988;20.338;2024-01-30T07:30:21;51.60;1817.60
70593;DHT22;58294;42.988;20.338;2024-01-30T07:32:48;51.60;1817.60
70593;DHT22;58294;42.988;20.338;2024-01-30T07:35:14;51.70;1817.60
70593;DHT22;58294;42.988;20.338;2024-01-30T07:37:40;51.90;1817.60
70593;DHT22;58294;42.988;20.338;2024-01-30T07:40:06;51.80;1766.40
70593;DHT22;58294;42.988;20.338;2024-01-30T07:42:33;51.80;1792.00
70593;DHT22;58294;42.988;20.338;2024-01-30T07:44:59;51.90;1792.00
70593;DHT22;58294;42.988;20.338;2024-01-30T07:47:26;51.90;1792.00
70593;DHT22;58294;42.988;20.338;2024-01-30T07:49:52;52.00;1792.00
70593;DHT22;58294;42.988;20.338;2024-01-30T07:52:18;52.10;1766.40
70593;DHT22;58294;42.988;20.338;2024-01-30T07:54:44;76.80;1766.40
70593;DHT22;58294;42.988;20.338;2024-01-30T07:57:10;76.80;1792.00
70593;DHT22;58294;42.988;20.338;2024-01-30T07:59:35;76.90;1766.40
70593;DHT22;58294;42.988;20.338;2024-01-30T08:02:01;77.00;1766.40
70593;DHT22;58294;42.988;20.338;2024-01-30T08:04:27;77.00;1766.40
70593;DHT22;58294;42.988;20.338;2024-01-30T08:06:53;77.10;1740.80
70593;DHT22;58294;42.988;20.338;2024-01-30T08:09:18;77.10;1715.20
70593;DHT22;58294;42.988;20.338;2024-01-30T08:11:44;77.10;1715.20
70593;DHT22;58294;42.988;20.338;2024-01-30T08:14:10;77.20;1740.80
70593;DHT22;58294;42.988;20.338;2024-01-30T08:16:36;77.30;1715.20
70593;DHT22;58294;42.988;20.338;2024-01-30T08:19:02;77.30;1715.20
70593;DHT22;58294;42.988;20.338;2024-01-30T08:21:28;77.20;1689.60
70593;DHT22;58294;42.988;20.338;2024-01-30T08:23:54;77.20;1715.20
70593;DHT22;58294;42.988;20.338;2024-01-30T08:26:20;77.30;1740.80
70593;DHT22;58294;42.988;20.338;2024-01-30T08:28:45;77.30;1715.20
70593;DHT22;58294;42.988;20.338;2024-01-30T08:31:11;77.40;1715.20
70593;DHT22;58294;42.988;20.338;2024-01-30T08:33:40;77.40;1715.20
70593;DHT22;58294;42.988;20.338;2024-01-30T08:36:06;77.40;1740.80
70593;DHT22;58294;42.988;20.338;2024-01-30T08:38:32;77.40;1740.80
70593;DHT22;58294;42.988;20.338;2024-01-30T08:40:58;77.40;1740.80
70593;DHT22;58294;42.988;20.338;2024-01-30T08:43:24;77.40;1740.80
70593;DHT22;58294;42.988;20.338;2024-01-30T08:45:49;77.50;1715.20
70593;DHT22;58294;42.988;20.338;2024-01-30T08:48:15;77.50;1740.80
70593;DHT22;58294;42.988;20.338;2024-01-30T08:50:41;77.60;1740.80
70593;DHT22;58294;42.988;20.338;2024-01-30T08:53:07;77.60;1715.20
70593;DHT22;58294;42.988;20.338;2024-01-30T08:55:32;77.60;1715.20
70593;DHT22;58294;42.988;20.338;2024-01-30T08:57:58;77.60;1715.20
70593;DHT22;58294;42.988;20.338;2024-01-30T09:00:25;77.70;1715.20
70593;DHT22;58294;42.988;20.338;2024-01-30T09:02:50;77.70;1715.20
70593;DHT22;58294;42.988;20.338;2024-01-30T09:05:16;77.70;1715.20
70593;DHT22;58294;42.988;20.338;2024-01-30T09:07:42;77.70;1715.20
70593;DHT22;58294;42.988;20.338;2024-01-30T09:10:08;77.70;1715.20
70593;DHT22;58294;42.988;20.338;2024-01-30T09:12:34;77.70;1740.80
70593;DHT22;58294;42.988;20.338;2024-01-30T09:15:00;77.70;1740.80
70593;DHT22;58294;42.988;20.338;2024-01-30T09:17:25;102.40;1740.80
70593;DHT22;58294;42.988;20.338;2024-01-30T09:19:51;102.40;1740.80
70593;DHT22;58294;42.988;20.338;2024-01-30T09:22:17;102.40;1664.00
70593;DHT22;58294;42.988;20.338;2024-01-30T09:24:43;77.60;1664.00
70593;DHT22;58294;42.988;20.338;2024-01-30T09:27:09;77.60;1715.20
70593;DHT22;58294;42.988;20.338;2024-01-30T09:29:35;77.60;1689.60
70593;DHT22;58294;42.988;20.338;2024-01-30T09:32:01;77.60;1715.20
70593;DHT22;58294;42.988;20.338;2024-01-30T09:34:27;77.60;1740.80
70593;DHT22;58294;42.988;20.338;2024-01-30T09:36:53;77.70;1766.40
70593;DHT22;58294;42.988;20.338;2024-01-30T09:39:19;102.60;1945.60
70593;DHT22;58294;42.988;20.338;2024-01-30T09:41:50;102.90;1766.40
70593;DHT22;58294;42.988;20.338;2024-01-30T09:44:20;102.90;1689.60
70593;DHT22;58294;42.988;20.338;2024-01-30T09:46:47;102.90;1740.80
70593;DHT22;58294;42.988;20.338;2024-01-30T09:49:16;128.00;1868.80
70593;DHT22;58294;42.988;20.338;2024-01-30T09:51:44;128.80;1920.00
70593;DHT22;58294;42.988;20.338;2024-01-30T09:54:13;154.00;1817.60
70593;DHT22;58294;42.988;20.338;2024-01-30T09:56:39;179.30;1843.20
70593;DHT22;58294;42.988;20.338;2024-01-30T09:59:05;179.80;1843.20
70593;DHT22;58294;42.988;20.338;2024-01-30T10:01:31;205.00;1740.80
70593;DHT22;58294;42.988;20.338;2024-01-30T10:03:59;205.50;1561.60
70593;DHT22;58294;42.988;20.338;2024-01-30T10:06:26;205.40;1459.20
70593;DHT22;58294;42.988;20.338;2024-01-30T10:08:53;205.70;1484.80
70593;DHT22;58294;42.988;20.338;2024-01-30T10:11:19;205.70;1459.20
70593;DHT22;58294;42.988;20.338;2024-01-30T10:13:45;230.60;1459.20
70593;DHT22;58294;42.988;20.338;2024-01-30T10:16:14;230.70;1356.80
70593;DHT22;58294;42.988;20.338;2024-01-30T10:18:42;230.90;1382.40
70593;DHT22;58294;42.988;20.338;2024-01-30T10:21:08;231.20;1408.00
70593;DHT22;58294;42.988;20.338;2024-01-30T10:23:36;256.10;1408.00
70593;DHT22;58294;42.988;20.338;2024-01-30T10:26:07;256.40;1382.40
70593;DHT22;58294;42.988;20.338;2024-01-30T10:28:33;256.90;1433.60
70593;DHT22;58294;42.988;20.338;2024-01-30T10:31:02;282.00;1408.00
70593;DHT22;58294;42.988;20.338;2024-01-30T10:33:31;282.30;1356.80
70593;DHT22;58294;42.988;20.338;2024-01-30T10:36:01;282.20;1254.40
70593;DHT22;58294;42.988;20.338;2024-01-30T10:38:32;282.20;1280.00
70593;DHT22;58294;42.988;20.338;2024-01-30T10:40:59;307.20;1280.00
70593;DHT22;58294;42.988;20.338;2024-01-30T10:43:31;307.40;1331.20
70593;DHT22;58294;42.988;20.338;2024-01-30T10:46:29;307.70;1280.00
70593;DHT22;58294;42.988;20.338;2024-01-30T10:48:58;308.00;1305.60
70593;DHT22;58294;42.988;20.338;2024-01-30T10:51:26;332.80;1254.40
70593;DHT22;58294;42.988;20.338;2024-01-30T10:53:52;332.80;1228.80
70593;DHT22;58294;42.988;20.338;2024-01-30T10:56:22;333.00;1254.40
70593;DHT22;58294;42.988;20.338;2024-01-30T10:58:51;333.40;1280.00
70593;DHT22;58294;42.988;20.338;2024-01-30T11:01:22;333.50;1203.20
70593;DHT22;58294;42.988;20.338;2024-01-30T11:03:51;333.70;1203.20
70593;DHT22;58294;42.988;20.338;2024-01-30T11:06:17;358.60;1203.20
70593;DHT22;58294;42.988;20.338;2024-01-30T11:08:45;358.50;1152.00
70593;DHT22;58294;42.988;20.338;2024-01-30T11:11:11;358.60;1177.60
70593;DHT22;58294;42.988;20.338;2024-01-30T11:13:37;358.70;1152.00
70593;DHT22;58294;42.988;20.338;2024-01-30T11:16:03;358.90;1126.40
70593;DHT22;58294;42.988;20.338;2024-01-30T11:18:31;358.90;1126.40
70593;DHT22;58294;42.988;20.338;2024-01-30T11:20:57;359.00;1152.00
70593;DHT22;58294;42.988;20.338;2024-01-30T11:23:23;359.20;1049.60
70593;DHT22;58294;42.988;20.338;2024-01-30T11:25:53;359.20;1075.20
70593;DHT22;58294;42.988;20.338;2024-01-30T11:28:21;384.10;1100.80
70593;DHT22;58294;42.988;20.338;2024-01-30T11:30:47;384.20;1100.80
70593;DHT22;58294;42.988;20.338;2024-01-30T11:33:30;384.70;1126.40
70593;DHT22;58294;42.988;20.338;2024-01-30T11:35:57;409.70;1024.00
70593;DHT22;58294;42.988;20.338;2024-01-30T11:38:27;410.00;1100.80
70593;DHT22;58294;42.988;20.338;2024-01-30T11:40:54;410.40;1100.80
70593;DHT22;58294;42.988;20.338;2024-01-30T11:43:21;435.40;1049.60
70593;DHT22;58294;42.988;20.338;2024-01-30T11:45:47;435.50;998.40
70593;DHT22;58294;42.988;20.338;2024-01-30T11:48:13;435.70;972.80
70593;DHT22;58294;42.988;20.338;2024-01-30T11:50:39;435.70;896.00
70593;DHT22;58294;42.988;20.338;2024-01-30T11:53:06;435.80;998.40
70593;DHT22;58294;42.988;20.338;2024-01-30T11:55:33;460.80;972.80
70593;DHT22;58294;42.988;20.338;2024-01-30T11:57:59;460.90;947.20
70593;DHT22;58294;42.988;20.338;2024-01-30T12:00:26;461.10;998.40
70593;DHT22;58294;42.988;20.338;2024-01-30T12:02:55;461.40;972.80
70593;DHT22;58294;42.988;20.338;2024-01-30T12:05:25;461.20;896.00
70593;DHT22;58294;42.988;20.338;2024-01-30T12:07:51;461.30;947.20
70593;DHT22;58294;42.988;20.338;2024-01-30T12:10:17;461.30;896.00
70593;DHT22;58294;42.988;20.338;2024-01-30T12:12:47;461.40;896.00
70593;DHT22;58294;42.988;20.338;2024-01-30T12:15:15;461.00;819.20
70593;DHT22;58294;42.988;20.338;2024-01-30T12:17:41;435.70;819.20
70593;DHT22;58294;42.988;20.338;2024-01-30T12:22:37;409.70;844.80
70593;DHT22;58294;42.988;20.338;2024-01-30T12:25:11;384.40;870.40
70593;DHT22;58294;42.988;20.338;2024-01-30T12:27:38;359.10;870.40
70593;DHT22;58294;42.988;20.338;2024-01-30T12:30:14;358.60;870.40
70593;DHT22;58294;42.988;20.338;2024-01-30T12:32:42;333.50;896.00
70593;DHT22;58294;42.988;20.338;2024-01-30T12:35:15;333.20;947.20
70593;DHT22;58294;42.988;20.338;2024-01-30T12:37:43;308.10;921.60
70593;DHT22;58294;42.988;20.338;2024-01-30T12:40:10;307.60;947.20
70593;DHT22;58294;42.988;20.338;2024-01-30T12:42:38;307.20;972.80
70593;DHT22;58294;42.988;20.338;2024-01-30T12:45:05;282.30;947.20
70593;DHT22;58294;42.988;20.338;2024-01-30T12:47:31;282.00;947.20
70593;DHT22;58294;42.988;20.338;2024-01-30T12:49:57;281.60;972.80
70593;DHT22;58294;42.988;20.338;2024-01-30T12:52:24;256.70;972.80
70593;DHT22;58294;42.988;20.338;2024-01-30T12:54:50;256.40;998.40
70593;DHT22;58294;42.988;20.338;2024-01-30T12:57:16;256.20;998.40
70593;DHT22;58294;42.988;20.338;2024-01-30T12:59:43;256.00;1024.00
70593;DHT22;58294;42.988;20.338;2024-01-30T13:02:09;231.30;1024.00
70593;DHT22;58294;42.988;20.338;2024-01-30T13:04:35;231.10;1024.00
70593;DHT22;58294;42.988;20.338;2024-01-30T13:07:01;231.10;1024.00
70593;DHT22;58294;42.988;20.338;2024-01-30T13:09:27;231.00;998.40
70593;DHT22;58294;42.988;20.338;2024-01-30T13:11:53;231.00;1024.00
70593;DHT22;58294;42.988;20.338;2024-01-30T13:14:19;231.00;1049.60
70593;DHT22;58294;42.988;20.338;2024-01-30T13:16:45;230.90;1049.60
70593;DHT22;58294;42.988;20.338;2024-01-30T13:19:11;230.90;1049.60
70593;DHT22;58294;42.988;20.338;2024-01-30T13:21:37;230.80;1075.20
70593;DHT22;58294;42.988;20.338;2024-01-30T13:24:03;230.80;1049.60
70593;DHT22;58294;42.988;20.338;2024-01-30T13:26:31;230.70;1075.20
70593;DHT22;58294;42.988;20.338;2024-01-30T13:28:57;230.70;1075.20
70593;DHT22;58294;42.988;20.338;2024-01-30T13:31:23;230.70;1075.20
70593;DHT22;58294;42.988;20.338;2024-01-30T13:33:49;230.70;1100.80
70593;DHT22;58294;42.988;20.338;2024-01-30T13:36:15;230.60;1075.20
70593;DHT22;58294;42.988;20.338;2024-01-30T13:38:41;230.60;1075.20
70593;DHT22;58294;42.988;20.338;2024-01-30T13:41:07;230.50;1075.20
70593;DHT22;58294;42.988;20.338;2024-01-30T13:43:32;230.50;1100.80
70593;DHT22;58294;42.988;20.338;2024-01-30T13:45:59;230.40;1075.20
70593;DHT22;58294;42.988;20.338;2024-01-30T13:48:24;230.40;1075.20
70593;DHT22;58294;42.988;20.338;2024-01-30T13:50:50;230.40;1100.80
70593;DHT22;58294;42.988;20.338;2024-01-30T13:53:16;205.60;1126.40
70593;DHT22;58294;42.988;20.338;2024-01-30T13:55:42;205.60;1126.40
70593;DHT22;58294;42.988;20.338;2024-01-30T13:58:08;205.60;1100.80
70593;DHT22;58294;42.988;20.338;2024-01-30T14:00:34;205.50;1126.40
70593;DHT22;58294;42.988;20.338;2024-01-30T14:03:00;205.30;1100.80
70593;DHT22;58294;42.988;20.338;2024-01-30T14:05:26;205.30;1100.80
70593;DHT22;58294;42.988;20.338;2024-01-30T14:07:57;205.30;1100.80
70593;DHT22;58294;42.988;20.338;2024-01-30T14:10:23;205.30;1100.80
70593;DHT22;58294;42.988;20.338;2024-01-30T14:12:49;205.30;1126.40
70593;DHT22;58294;42.988;20.338;2024-01-30T14:15:15;205.30;1126.40
70593;DHT22;58294;42.988;20.338;2024-01-30T14:17:44;205.30;1100.80
70593;DHT22;58294;42.988;20.338;2024-01-30T14:20:11;205.30;1126.40
70593;DHT22;58294;42.988;20.338;2024-01-30T14:22:37;205.20;1100.80
70593;DHT22;58294;42.988;20.338;2024-01-30T14:25:03;205.10;1100.80
70593;DHT22;58294;42.988;20.338;2024-01-30T14:27:30;205.10;1075.20
70593;DHT22;58294;42.988;20.338;2024-01-30T14:29:56;205.00;1075.20
70593;DHT22;58294;42.988;20.338;2024-01-30T14:32:23;205.00;1100.80
70593;DHT22;58294;42.988;20.338;2024-01-30T14:34:49;205.00;1100.80
70593;DHT22;58294;42.988;20.338;2024-01-30T14:37:15;205.00;1100.80
70593;DHT22;58294;42.988;20.338;2024-01-30T14:39:41;205.00;1100.80
70593;DHT22;58294;42.988;20.338;2024-01-30T14:42:07;205.00;1100.80